Time;durP1;ratioP1;P1;durP2;ratioP2;P2;SDS_P1;SDS_P2;PMS_P1;PMS_P2;Temp;Humidity;BMP_temperature;BMP_pressure;BME280_temperature;BME280_humidity;BME280_pressure;Samples;Min_cycle;Max_cycle;Signal;HPM_P1;HPM_P2
2024/04/15 00:00:13;;;;;;;1.80;0.90;;;;;;;20.02;100.00;100209.47;5488201;26;20393;-78
2024/04/15 00:02:38;;;;;;;1.70;1.00;;;;;;;19.99;100.00;100210.13;5488599;26;20308;-78
2024/04/15 00:05:03;;;;;;;2.00;1.00;;;;;;;19.95;100.00;100201.66;5494631;26;20343;-77
2024/04/15 00:07:29;;;;;;;1.67;1.07;;;;;;;19.97;100.00;100206.84;5511938;26;20352;-78
2024/04/15 00:09:54;;;;;;;2.15;1.20;;;;;;;19.97;100.00;100198.59;5506310;26;20670;-78
2024/04/15 00:12:19;;;;;;;1.60;0.70;;;;;;;19.98;100.00;100202.97;5489912;26;20857;-78
2024/04/15 00:14:45;;;;;;;2.40;0.90;;;;;;;19.96;100.00;100189.53;5488606;26;20323;-78
2024/04/15 00:17:10;;;;;;;1.00;0.90;;;;;;;19.91;100.00;100188.84;5489647;26;20306;-78
2024/04/15 00:19:36;;;;;;;2.80;0.70;;;;;;;19.90;100.00;100178.97;5487587;26;20778;-78
2024/04/15 00:22:01;;;;;;;2.10;1.30;;;;;;;19.91;100.00;100162.16;5487290;26;20348;-78
2024/04/15 00:24:27;;;;;;;4.03;1.20;;;;;;;19.90;100.00;100176.22;5489549;26;20781;-78
2024/04/15 00:26:52;;;;;;;1.87;1.00;;;;;;;19.89;100.00;100166.38;5489428;26;20395;-78
2024/04/15 00:29:17;;;;;;;1.00;0.90;;;;;;;19.85;100.00;100168.09;5505991;26;20352;-78
2024/04/15 00:31:43;;;;;;;1.50;1.10;;;;;;;19.81;100.00;100172.59;5505860;26;20396;-78
2024/04/15 00:34:08;;;;;;;1.20;1.10;;;;;;;19.76;100.00;100165.28;5509499;26;20322;-77
2024/04/15 00:36:33;;;;;;;1.90;0.77;;;;;;;19.77;100.00;100157.84;5512875;26;20316;-78
2024/04/15 00:38:58;;;;;;;2.20;0.90;;;;;;;19.79;100.00;100172.09;5483508;26;20745;-78
2024/04/15 00:41:24;;;;;;;1.80;1.00;;;;;;;19.73;100.00;100163.16;5489449;26;20319;-78
2024/04/15 00:43:49;;;;;;;2.60;0.90;;;;;;;19.72;100.00;100167.06;5457025;26;20307;-78
2024/04/15 00:46:14;;;;;;;1.93;1.03;;;;;;;19.67;100.00;100161.66;5456956;26;20314;-78
2024/04/15 00:48:40;;;;;;;2.40;1.03;;;;;;;19.65;100.00;100158.41;5489299;26;20408;-77
2024/04/15 00:51:06;;;;;;;2.08;1.10;;;;;;;19.58;100.00;100150.59;5489011;26;20412;-78
2024/04/15 00:53:31;;;;;;;3.33;0.93;;;;;;;19.56;100.00;100155.59;5488971;26;20314;-77
2024/04/15 00:56:00;;;;;;;1.63;0.80;;;;;;;19.47;100.00;100153.91;5488941;26;20312;-78
2024/04/15 00:58:26;;;;;;;4.35;1.02;;;;;;;19.42;100.00;100152.09;5512066;26;20300;-78
2024/04/15 01:00:53;;;;;;;3.92;1.10;;;;;;;19.37;100.00;100143.09;5507361;26;20326;-78
2024/04/15 01:03:19;;;;;;;2.00;1.10;;;;;;;19.41;100.00;100139.47;5503671;26;20868;-78
2024/04/15 01:05:45;;;;;;;2.85;1.00;;;;;;;19.41;100.00;100122.16;5511589;26;20320;-78
2024/04/15 01:08:11;;;;;;;1.97;0.93;;;;;;;19.46;100.00;100138.56;5509403;26;20342;-77
2024/04/15 01:10:36;;;;;;;2.77;1.07;;;;;;;19.48;100.00;100128.03;5488471;26;20351;-78
2024/04/15 01:13:02;;;;;;;3.50;1.10;;;;;;;19.47;100.00;100129.97;5484485;26;20684;-78
2024/04/15 01:15:27;;;;;;;1.60;1.37;;;;;;;19.47;100.00;100112.66;5488750;26;20687;-78
2024/04/15 01:17:52;;;;;;;3.80;1.63;;;;;;;19.42;100.00;100116.38;5499727;26;20308;-77
2024/04/15 01:20:18;;;;;;;2.07;1.20;;;;;;;19.40;100.00;100107.59;5510032;26;20372;-78
2024/04/15 01:22:52;;;;;;;2.07;1.20;;;;;;;19.39;100.00;100116.16;5487503;26;20306;-77
2024/04/15 01:25:17;;;;;;;3.97;1.35;;;;;;;19.36;100.00;100120.34;5507597;26;20346;-78
2024/04/15 01:27:43;;;;;;;2.63;1.60;;;;;;;19.30;100.00;100129.81;5509917;26;20889;-78
2024/04/15 01:30:08;;;;;;;3.30;1.50;;;;;;;19.28;100.00;100123.81;5473376;26;20357;-78
2024/04/15 01:32:34;;;;;;;2.65;1.15;;;;;;;19.24;100.00;100108.25;5456176;26;20679;-78
2024/04/15 01:34:59;;;;;;;2.83;1.17;;;;;;;19.22;100.00;100111.31;5488493;26;20717;-77
2024/04/15 01:37:24;;;;;;;2.47;1.17;;;;;;;19.14;100.00;100114.78;5488263;26;20310;-76
2024/04/15 01:39:49;;;;;;;5.17;1.70;;;;;;;19.10;100.00;100111.84;5488015;26;20366;-77
2024/04/15 01:42:15;;;;;;;3.10;1.10;;;;;;;19.09;100.00;100109.44;5487905;26;20789;-78
2024/04/15 01:44:40;;;;;;;2.90;1.43;;;;;;;19.08;100.00;100116.84;5488234;26;20323;-78
2024/04/15 01:47:05;;;;;;;3.13;1.43;;;;;;;19.07;100.00;100106.16;5484570;26;20344;-77
2024/04/15 01:49:31;;;;;;;4.57;1.37;;;;;;;19.00;100.00;100070.88;5511682;26;20319;-78
2024/04/15 01:51:56;;;;;;;3.27;1.50;;;;;;;19.04;100.00;100093.06;5507162;26;20471;-77
2024/04/15 01:54:21;;;;;;;5.30;1.73;;;;;;;19.09;100.00;100104.75;5504578;26;20357;-78
2024/04/15 01:56:46;;;;;;;2.43;1.33;;;;;;;19.00;100.00;100098.34;5508693;26;20354;-78
2024/04/15 01:59:12;;;;;;;3.33;1.43;;;;;;;18.93;100.00;100070.53;5509975;26;20316;-78
2024/04/15 02:01:37;;;;;;;5.20;1.40;;;;;;;18.94;100.00;100085.84;5509137;26;20300;-77
2024/04/15 02:04:03;;;;;;;2.50;1.20;;;;;;;18.90;100.00;100073.88;5490212;26;20370;-77
2024/04/15 02:06:28;;;;;;;2.35;1.27;;;;;;;18.88;100.00;100069.81;5458011;26;20431;-77
2024/04/15 02:08:53;;;;;;;3.73;1.20;;;;;;;18.84;100.00;100072.34;5511545;26;20308;-77
2024/04/15 02:11:18;;;;;;;3.53;1.33;;;;;;;18.85;100.00;100100.63;5510943;26;20312;-78
2024/04/15 02:13:43;;;;;;;3.00;1.53;;;;;;;18.67;100.00;100082.38;5503276;26;20350;-78
2024/04/15 02:16:09;;;;;;;4.13;1.20;;;;;;;18.63;100.00;100088.47;5494393;26;20895;-78
2024/04/15 02:18:34;;;;;;;4.40;1.65;;;;;;;18.60;100.00;100080.03;5494192;26;20311;-78
2024/04/15 02:21:00;;;;;;;4.27;1.50;;;;;;;18.50;100.00;100080.25;5496888;26;20373;-78
2024/04/15 02:23:25;;;;;;;4.40;1.70;;;;;;;18.38;100.00;100067.00;5486168;26;20758;-78
2024/04/15 02:25:50;;;;;;;3.83;1.50;;;;;;;18.35;100.00;100086.81;5487711;26;20832;-79
2024/04/15 02:28:16;;;;;;;2.20;1.50;;;;;;;18.29;100.00;100082.56;5492369;26;20339;-79
2024/04/15 02:30:41;;;;;;;2.53;2.23;;;;;;;18.27;100.00;100059.31;5510697;26;20426;-78
2024/04/15 02:33:06;;;;;;;2.63;1.33;;;;;;;18.26;100.00;100060.41;5508756;26;20368;-78
2024/04/15 02:35:31;;;;;;;3.07;1.20;;;;;;;18.20;100.00;100054.22;5503978;26;20349;-77
2024/04/15 02:37:56;;;;;;;2.63;1.10;;;;;;;18.18;100.00;100048.22;5495179;26;20321;-78
2024/04/15 02:40:22;;;;;;;4.03;1.27;;;;;;;18.12;100.00;100061.22;5509905;26;20800;-78
2024/04/15 02:42:47;;;;;;;4.03;1.77;;;;;;;18.04;100.00;100072.91;5509042;26;20304;-78
2024/04/15 02:45:12;;;;;;;3.43;1.30;;;;;;;18.04;100.00;100092.13;5503881;26;20315;-78
2024/04/15 02:47:37;;;;;;;3.27;1.57;;;;;;;18.01;100.00;100087.19;5504126;26;20386;-78
2024/04/15 02:50:03;;;;;;;2.23;1.50;;;;;;;17.99;100.00;100058.47;5510596;26;20404;-78
2024/04/15 02:52:29;;;;;;;3.93;1.40;;;;;;;17.96;100.00;100026.19;5510529;26;20331;-78
2024/04/15 02:54:54;;;;;;;2.10;1.10;;;;;;;17.85;100.00;100031.03;5487440;26;20349;-78
2024/04/15 02:57:19;;;;;;;4.70;1.70;;;;;;;17.84;100.00;100054.09;5487320;26;20404;-78
2024/04/15 02:59:44;;;;;;;2.63;1.30;;;;;;;17.87;100.00;100058.97;5487271;26;20343;-78
2024/04/15 03:02:10;;;;;;;2.57;1.20;;;;;;;17.90;100.00;100036.44;5486161;26;20402;-78
2024/04/15 03:04:35;;;;;;;1.90;1.70;;;;;;;17.79;100.00;100035.00;5486110;26;20448;-78
2024/04/15 03:07:00;;;;;;;2.03;1.30;;;;;;;17.78;100.00;100044.34;5486904;26;20785;-78
2024/04/15 03:09:26;;;;;;;3.93;1.40;;;;;;;17.77;100.00;100039.16;5486641;26;20334;-78
2024/04/15 03:11:51;;;;;;;2.77;1.20;;;;;;;17.78;100.00;100044.34;5486030;26;20303;-78
2024/04/15 03:14:16;;;;;;;1.93;1.30;;;;;;;17.80;100.00;100039.38;5486643;26;20817;-79
2024/04/15 03:16:45;;;;;;;5.33;1.57;;;;;;;17.76;100.00;100035.59;5485905;26;20315;-78
2024/04/15 03:19:10;;;;;;;3.13;2.17;;;;;;;17.76;100.00;100007.38;5517290;26;20350;-78
2024/04/15 03:21:35;;;;;;;4.53;1.43;;;;;;;17.77;100.00;100007.09;5523041;26;20300;-78
2024/04/15 03:24:01;;;;;;;5.57;2.03;;;;;;;17.74;100.00;99996.72;5523011;26;20327;-78
2024/04/15 03:26:26;;;;;;;5.87;1.70;;;;;;;17.60;100.00;100004.94;5522900;26;20316;-78
2024/04/15 03:28:52;;;;;;;4.70;1.53;;;;;;;17.60;100.00;100018.63;5501910;26;20369;-78
2024/04/15 03:31:17;;;;;;;5.90;1.27;;;;;;;17.50;100.00;100018.78;5484462;26;20841;-77
2024/04/15 03:33:42;;;;;;;2.17;1.30;;;;;;;17.45;100.00;100027.06;5486528;26;20413;-78
2024/04/15 03:36:08;;;;;;;2.63;1.60;;;;;;;17.44;100.00;100016.44;5486464;26;20318;-78
2024/04/15 03:38:33;;;;;;;7.07;1.70;;;;;;;17.46;100.00;99992.28;5486154;26;20354;-78
2024/04/15 03:40:58;;;;;;;2.97;1.23;;;;;;;17.44;100.00;100003.56;5486222;26;20404;-78
2024/04/15 03:43:24;;;;;;;3.00;1.70;;;;;;;17.43;100.00;99990.97;5486112;26;20355;-78
2024/04/15 03:45:49;;;;;;;1.88;1.33;;;;;;;17.40;100.00;99983.34;5474414;26;20684;-77
2024/04/15 03:48:15;;;;;;;3.97;1.57;;;;;;;17.41;100.00;99978.69;5474721;26;20326;-78
2024/04/15 03:50:40;;;;;;;2.37;1.43;;;;;;;17.33;100.00;99980.19;5486113;26;20318;-78
2024/04/15 03:53:06;;;;;;;2.83;1.20;;;;;;;17.29;100.00;99976.41;5485243;26;20354;-78
2024/04/15 03:55:31;;;;;;;4.23;1.53;;;;;;;17.23;100.00;99991.31;5489655;26;20812;-78
2024/04/15 03:57:56;;;;;;;3.40;1.70;;;;;;;17.21;100.00;99992.72;5457402;26;20318;-78
2024/04/15 04:00:21;;;;;;;2.37;1.67;;;;;;;17.24;100.00;99984.72;5488059;26;20742;-78
2024/04/15 04:02:47;;;;;;;2.93;1.20;;;;;;;17.27;100.00;100003.31;5485554;26;20345;-78
2024/04/15 04:05:12;;;;;;;2.20;1.30;;;;;;;17.28;100.00;100023.28;5489015;26;20318;-78
2024/04/15 04:07:37;;;;;;;1.80;1.50;;;;;;;17.22;100.00;100014.34;5489025;26;20730;-78
2024/04/15 04:10:03;;;;;;;2.57;1.30;;;;;;;17.13;100.00;100013.38;5502154;26;20323;-78
2024/04/15 04:12:28;;;;;;;5.30;1.47;;;;;;;17.11;100.00;100019.19;5525549;26;20394;-78
2024/04/15 04:14:53;;;;;;;3.63;1.50;;;;;;;17.13;100.00;100024.34;5525876;26;20794;-78
2024/04/15 04:17:18;;;;;;;3.20;1.70;;;;;;;17.11;100.00;100026.56;5482022;26;20421;-78
2024/04/15 04:19:44;;;;;;;4.77;1.60;;;;;;;17.07;100.00;100018.13;5486347;26;20910;-78
2024/04/15 04:22:09;;;;;;;6.83;1.80;;;;;;;16.97;100.00;100022.97;5485076;26;20400;-78
2024/04/15 04:24:34;;;;;;;3.47;1.53;;;;;;;17.03;100.00;100032.72;5496810;26;20336;-80
2024/04/15 04:26:59;;;;;;;2.45;1.25;;;;;;;17.01;100.00;100024.00;5469922;26;20902;-78
2024/04/15 04:29:25;;;;;;;3.10;1.50;;;;;;;17.03;100.00;100028.06;5479290;26;20359;-78
2024/04/15 04:31:50;;;;;;;1.63;1.50;;;;;;;16.96;100.00;100035.00;5486974;26;20352;-78
2024/04/15 04:34:15;;;;;;;7.03;3.30;;;;;;;16.98;100.00;100041.00;5489562;26;20396;-78
2024/04/15 04:36:40;;;;;;;3.70;1.85;;;;;;;16.88;100.00;100044.72;5478037;26;20840;-78
2024/04/15 04:39:06;;;;;;;4.80;1.90;;;;;;;16.81;100.00;100049.75;5473253;26;20366;-78
2024/04/15 04:41:31;;;;;;;3.83;1.63;;;;;;;16.82;100.00;100054.13;5487183;26;20322;-78
2024/04/15 04:43:57;;;;;;;2.92;1.60;;;;;;;16.92;100.00;100048.50;5482243;26;20319;-78
2024/04/15 04:46:22;;;;;;;4.00;1.87;;;;;;;16.98;100.00;100047.31;5482691;26;20310;-78
2024/04/15 04:48:49;;;;;;;4.07;1.73;;;;;;;16.97;100.00;100034.72;5454218;26;20799;-79
2024/04/15 04:51:14;;;;;;;2.55;1.77;;;;;;;16.94;100.00;100038.06;5458512;26;20368;-76
2024/04/15 04:53:39;;;;;;;4.87;1.50;;;;;;;16.91;100.00;100033.19;5473226;26;20315;-76
2024/04/15 04:56:12;;;;;;;4.57;1.67;;;;;;;16.88;100.00;100044.72;5500031;26;20870;-77
2024/04/15 04:58:41;;;;;;;5.00;1.95;;;;;;;16.90;100.00;100044.41;5525056;26;20312;-75
2024/04/15 05:01:11;;;;;;;2.28;1.52;;;;;;;16.89;100.00;100040.84;5510024;26;20331;-76
2024/04/15 05:03:43;;;;;;;4.53;1.85;;;;;;;16.93;100.00;100046.56;5524636;26;20393;-75
2024/04/15 05:06:10;;;;;;;3.53;1.53;;;;;;;16.90;100.00;100050.69;5524020;26;20316;-76
2024/04/15 05:08:36;;;;;;;2.90;1.70;;;;;;;16.94;100.00;100051.75;5518886;26;20864;-76
2024/04/15 05:11:02;;;;;;;4.90;2.20;;;;;;;16.92;100.00;100053.97;5447275;26;20655;-75
2024/04/15 05:13:28;;;;;;;2.37;1.67;;;;;;;16.93;100.00;100049.28;5486866;26;20307;-75
2024/04/15 05:16:08;;;;;;;3.20;2.00;;;;;;;16.91;100.00;100043.31;5499618;26;20348;-75
2024/04/15 05:18:34;;;;;;;5.20;1.90;;;;;;;16.94;100.00;100040.78;5524914;26;20418;-76
2024/04/15 05:21:00;;;;;;;4.72;1.90;;;;;;;16.99;100.00;100039.91;5464740;26;20326;-76
2024/04/15 05:23:26;;;;;;;3.10;1.98;;;;;;;17.02;100.00;100047.53;5459789;26;20825;-77
2024/04/15 05:25:51;;;;;;;2.50;1.75;;;;;;;17.01;100.00;100051.38;5483144;26;20463;-77
2024/04/15 05:28:17;;;;;;;3.60;1.73;;;;;;;16.97;100.00;100053.88;5467985;26;20698;-76
2024/04/15 05:30:42;;;;;;;3.33;1.93;;;;;;;16.89;100.00;100057.28;5447826;26;20354;-76
2024/04/15 05:33:07;;;;;;;3.07;1.80;;;;;;;16.82;100.00;100061.50;5488271;26;20310;-76
2024/04/15 05:35:32;;;;;;;2.33;1.63;;;;;;;16.78;100.00;100066.75;5486269;26;20330;-77
2024/04/15 05:37:58;;;;;;;2.47;1.60;;;;;;;16.79;100.00;100062.94;5483273;26;20379;-76
2024/04/15 05:40:23;;;;;;;3.70;1.83;;;;;;;16.80;100.00;100067.25;5509954;26;20342;-76
2024/04/15 05:42:48;;;;;;;4.33;2.00;;;;;;;16.81;100.00;100062.63;5523875;26;20319;-76
2024/04/15 05:45:13;;;;;;;2.80;1.80;;;;;;;16.88;100.00;100068.53;5498607;26;20332;-76
2024/04/15 05:47:39;;;;;;;3.63;1.97;;;;;;;16.86;100.00;100063.34;5484135;26;20335;-76
2024/04/15 05:50:04;;;;;;;3.23;1.77;;;;;;;16.91;100.00;100059.72;5511383;26;20323;-77
2024/04/15 05:52:30;;;;;;;2.20;1.70;;;;;;;16.89;100.00;100049.06;5522815;26;20316;-77
2024/04/15 05:54:55;;;;;;;4.07;1.90;;;;;;;16.88;100.00;100052.94;5494104;26;20315;-76
2024/04/15 05:57:21;;;;;;;3.33;1.75;;;;;;;16.85;100.00;100055.44;5493923;26;20818;-77
2024/04/15 05:59:47;;;;;;;7.80;2.40;;;;;;;16.82;100.00;100053.31;5473264;26;20311;-76
2024/04/15 06:02:13;;;;;;;3.60;1.58;;;;;;;16.85;100.00;100050.78;5482390;26;20418;-76
2024/04/15 06:04:38;;;;;;;4.60;2.00;;;;;;;16.86;100.00;100046.13;5495417;26;20319;-77
2024/04/15 06:07:04;;;;;;;6.83;1.80;;;;;;;16.85;100.00;100050.78;5495660;26;20322;-77
2024/04/15 06:09:29;;;;;;;3.90;2.10;;;;;;;16.81;100.00;100057.97;5504521;26;20881;-76
2024/04/15 06:11:54;;;;;;;3.37;1.87;;;;;;;16.70;100.00;100064.66;5516148;26;20358;-77
2024/04/15 06:14:22;;;;;;;4.23;2.07;;;;;;;16.71;100.00;100062.75;5487460;26;20319;-76
2024/04/15 06:16:48;;;;;;;2.20;1.80;;;;;;;16.71;100.00;100060.00;5485670;26;20366;-77
2024/04/15 06:19:13;;;;;;;3.15;2.20;;;;;;;16.69;100.00;100068.53;5453884;26;20322;-77
2024/04/15 06:21:39;;;;;;;2.63;1.87;;;;;;;16.69;100.00;100064.97;5486913;26;20741;-77
2024/04/15 06:24:04;;;;;;;2.07;1.80;;;;;;;16.65;100.00;100056.53;5431859;26;20319;-76
2024/04/15 06:26:29;;;;;;;4.57;2.30;;;;;;;16.66;100.00;100055.44;5476539;26;20665;-77
2024/04/15 06:28:55;;;;;;;5.27;2.37;;;;;;;16.70;100.00;100056.47;5484349;26;21440;-76
2024/04/15 06:31:20;;;;;;;4.60;1.90;;;;;;;16.65;100.00;100058.47;5487178;26;20404;-76
2024/04/15 06:33:45;;;;;;;2.92;2.08;;;;;;;16.72;100.00;100064.38;5487252;26;20938;-77
2024/04/15 06:36:10;;;;;;;4.57;2.10;;;;;;;16.68;100.00;100063.34;5475820;26;20302;-77
2024/04/15 06:38:36;;;;;;;3.57;2.00;;;;;;;16.60;100.00;100064.81;5484975;26;20342;-77
2024/04/15 06:41:01;;;;;;;5.10;2.17;;;;;;;16.56;100.00;100074.72;5484124;26;20345;-77
2024/04/15 06:43:27;;;;;;;5.27;2.13;;;;;;;16.49;100.00;100080.53;5482931;26;20351;-76
2024/04/15 06:45:52;;;;;;;4.03;1.90;;;;;;;16.59;100.00;100080.44;5486481;26;20724;-77
2024/04/15 06:48:20;;;;;;;7.57;2.37;;;;;;;16.67;100.00;100078.13;5453781;26;20836;-77
2024/04/15 06:50:45;;;;;;;7.82;2.28;;;;;;;16.66;100.00;100076.50;5484115;26;20307;-77
2024/04/15 06:53:10;;;;;;;3.13;2.43;;;;;;;16.63;100.00;100072.41;5477841;26;20414;-77
2024/04/15 06:55:36;;;;;;;6.23;2.60;;;;;;;16.65;100.00;100063.94;5483304;26;20708;-77
2024/04/15 06:58:01;;;;;;;3.70;2.37;;;;;;;16.59;100.00;100063.19;5487182;26;20363;-76
2024/04/15 07:00:26;;;;;;;5.73;2.33;;;;;;;16.62;100.00;100059.88;5484936;26;20326;-77
2024/04/15 07:02:52;;;;;;;5.40;2.77;;;;;;;16.57;100.00;100035.31;5510620;26;20340;-76
2024/04/15 07:05:17;;;;;;;4.60;2.45;;;;;;;16.61;100.00;100036.34;5503754;26;20323;-77
2024/04/15 07:07:43;;;;;;;5.93;2.20;;;;;;;16.66;100.00;100033.56;5523321;26;20334;-76
2024/04/15 07:10:08;;;;;;;6.30;2.77;;;;;;;16.74;100.00;100037.53;5469821;26;20392;-77
2024/04/15 07:12:33;;;;;;;5.77;2.30;;;;;;;16.80;100.00;100059.06;5456652;26;20322;-77
2024/04/15 07:14:58;;;;;;;3.00;2.67;;;;;;;16.66;100.00;100049.97;5506973;26;20323;-77
2024/04/15 07:17:24;;;;;;;5.10;2.50;;;;;;;16.67;100.00;100035.16;5519929;26;20337;-76
2024/04/15 07:19:49;;;;;;;5.03;2.60;;;;;;;16.72;100.00;100026.91;5479478;26;20306;-77
2024/04/15 07:22:17;;;;;;;9.10;2.97;;;;;;;16.73;100.00;100019.50;5479199;26;20311;-77
2024/04/15 07:24:43;;;;;;;4.37;2.50;;;;;;;16.73;100.00;100031.25;5482798;26;20311;-77
2024/04/15 07:27:08;;;;;;;5.40;2.40;;;;;;;16.66;100.00;100027.28;5474493;26;20747;-77
2024/04/15 07:29:33;;;;;;;3.47;2.60;;;;;;;16.69;100.00;100022.03;5488748;26;20307;-77
2024/04/15 07:31:59;;;;;;;6.40;2.85;;;;;;;16.58;100.00;100028.72;5504516;26;20409;-77
2024/04/15 07:34:24;;;;;;;6.07;3.10;;;;;;;16.45;100.00;100027.50;5513369;26;20355;-77
2024/04/15 07:36:49;;;;;;;8.27;3.60;;;;;;;16.46;100.00;100011.91;5525718;26;20419;-77
2024/04/15 07:39:14;;;;;;;5.07;3.30;;;;;;;16.54;100.00;100001.13;5493157;26;20353;-76
2024/04/15 07:41:40;;;;;;;5.72;3.70;;;;;;;16.58;100.00;100009.59;5464589;26;20885;-77
2024/04/15 07:44:08;;;;;;;4.67;3.33;;;;;;;16.58;100.00;100006.84;5437613;26;20325;-76
2024/04/15 07:46:33;;;;;;;8.40;3.97;;;;;;;16.62;100.00;100010.63;5450371;26;20322;-76
2024/04/15 07:48:58;;;;;;;7.53;4.00;;;;;;;16.66;100.00;100017.13;5487812;26;20385;-77
2024/04/15 07:51:23;;;;;;;7.35;3.95;;;;;;;16.67;100.00;100004.25;5489921;26;20310;-77
2024/04/15 07:53:49;;;;;;;4.70;3.83;;;;;;;16.70;100.00;99995.44;5507295;26;20335;-79
2024/04/15 07:56:14;;;;;;;8.57;3.20;;;;;;;16.76;100.00;99981.41;5521324;26;20311;-76
2024/04/15 07:58:40;;;;;;;5.90;3.10;;;;;;;16.81;100.00;99980.50;5512918;26;20314;-77
2024/04/15 08:01:06;;;;;;;5.72;3.60;;;;;;;16.87;100.00;99993.81;5498967;26;20316;-77
2024/04/15 08:03:31;;;;;;;7.60;3.53;;;;;;;16.92;100.00;99979.25;5526201;26;20296;-77
2024/04/15 08:05:56;;;;;;;7.47;3.63;;;;;;;16.93;100.00;99975.38;5526124;26;20834;-77
2024/04/15 08:08:21;;;;;;;7.13;3.88;;;;;;;17.00;100.00;99978.56;5519146;26;20393;-76
2024/04/15 08:10:47;;;;;;;7.87;4.10;;;;;;;17.11;100.00;99975.38;5505695;26;20412;-77
2024/04/15 08:13:12;;;;;;;6.17;3.53;;;;;;;17.24;100.00;99967.47;5506198;26;20354;-77
2024/04/15 08:15:37;;;;;;;5.97;3.87;;;;;;;17.21;100.00;99955.22;5525877;26;20704;-77
2024/04/15 08:18:03;;;;;;;7.80;3.70;;;;;;;17.22;100.00;99961.50;5496169;26;20424;-77
2024/04/15 08:20:28;;;;;;;8.38;3.67;;;;;;;17.16;100.00;99963.50;5487546;26;20346;-76
2024/04/15 08:22:54;;;;;;;4.40;3.30;;;;;;;17.21;100.00;99959.88;5501316;26;20315;-76
2024/04/15 08:25:19;;;;;;;6.93;3.47;;;;;;;17.25;100.00;99955.44;5525755;26;20320;-76
2024/04/15 08:27:44;;;;;;;4.47;2.90;;;;;;;17.26;100.00;99946.91;5513242;26;20424;-77
2024/04/15 08:30:10;;;;;;;6.57;3.37;;;;;;;17.19;100.00;99943.72;5456638;26;20354;-77
2024/04/15 08:32:36;;;;;;;5.20;3.70;;;;;;;17.18;100.00;99946.78;5525714;26;20344;-77
2024/04/15 08:35:02;;;;;;;7.45;3.42;;;;;;;17.33;100.00;99941.03;5514934;26;20343;-77
2024/04/15 08:37:30;;;;;;;5.38;3.42;;;;;;;17.50;100.00;99942.06;5458549;26;20310;-76
2024/04/15 08:39:57;;;;;;;7.70;3.35;;;;;;;17.61;100.00;99949.03;5493361;26;20370;-77
2024/04/15 08:42:33;;;;;;;7.60;3.27;;;;;;;17.83;100.00;99950.22;5457782;26;20315;-77
2024/04/15 08:45:01;;;;;;;5.40;3.08;;;;;;;17.91;100.00;99955.84;5489168;26;20363;-77
2024/04/15 08:47:30;;;;;;;10.73;2.92;;;;;;;17.77;100.00;99959.69;5489062;26;20318;-76
2024/04/15 08:49:57;;;;;;;4.37;2.60;;;;;;;17.79;100.00;99950.03;5463860;26;20697;-76
2024/04/15 08:52:22;;;;;;;4.28;2.72;;;;;;;17.90;100.00;99948.72;5523424;26;20320;-75
2024/04/15 08:54:47;;;;;;;10.13;2.93;;;;;;;17.97;100.00;99951.88;5507053;26;20316;-76
2024/04/15 08:57:13;;;;;;;6.45;2.67;;;;;;;18.05;100.00;99939.34;5488579;26;20687;-74
2024/04/15 08:59:42;;;;;;;5.43;2.75;;;;;;;17.99;100.00;99929.59;5461744;26;20466;-75
2024/04/15 09:02:10;;;;;;;8.18;2.60;;;;;;;17.96;100.00;99917.34;5524865;26;20323;-75
2024/04/15 09:04:36;;;;;;;6.20;2.40;;;;;;;17.79;100.00;99910.84;5524700;26;20342;-75
2024/04/15 09:07:01;;;;;;;7.45;2.72;;;;;;;17.75;100.00;99905.16;5524859;26;20316;-75
2024/04/15 09:09:27;;;;;;;6.07;2.97;;;;;;;17.74;100.00;99902.75;5467849;26;20326;-75
2024/04/15 09:11:52;;;;;;;6.13;2.30;;;;;;;17.68;100.00;99903.97;5487790;26;20318;-75
2024/04/15 09:14:18;;;;;;;5.55;2.67;;;;;;;17.71;100.00;99898.69;5456530;26;20322;-75
2024/04/15 09:16:43;;;;;;;5.70;2.60;;;;;;;17.72;100.00;99900.28;5488856;26;20311;-75
2024/04/15 09:19:09;;;;;;;6.80;2.63;;;;;;;17.73;100.00;99903.84;5485370;26;20923;-75
2024/04/15 09:21:37;;;;;;;5.13;2.58;;;;;;;17.92;100.00;99902.59;5497045;26;20385;-75
2024/04/15 09:24:02;;;;;;;6.63;2.40;;;;;;;18.10;100.00;99901.69;5524764;26;20320;-75
2024/04/15 09:26:27;;;;;;;6.47;2.87;;;;;;;18.10;100.00;99901.69;5492523;26;20383;-74
2024/04/15 09:28:52;;;;;;;5.57;2.83;;;;;;;18.41;100.00;99898.22;5514193;26;20686;-73
2024/04/15 09:31:18;;;;;;;7.33;2.83;;;;;;;18.75;100.00;99904.03;5495804;26;20695;-75
2024/04/15 09:33:44;;;;;;;6.38;3.08;;;;;;;19.06;100.00;99879.34;5486376;26;20366;-75
2024/04/15 09:36:10;;;;;;;7.55;2.72;;;;;;;19.28;100.00;99884.78;5454437;26;20374;-75
2024/04/15 09:38:37;;;;;;;6.43;3.00;;;;;;;19.46;100.00;99881.00;5485723;26;20804;-75
2024/04/15 09:41:02;;;;;;;4.75;2.75;;;;;;;19.57;100.00;99876.84;5488416;26;20813;-76
2024/04/15 09:43:31;;;;;;;6.53;2.72;;;;;;;19.93;100.00;99881.31;5500716;26;20303;-76
2024/04/15 09:45:59;;;;;;;5.75;3.00;;;;;;;19.92;100.00;99876.97;5524593;26;20336;-76
2024/04/15 09:48:25;;;;;;;5.63;2.60;;;;;;;19.82;100.00;99872.59;5522353;26;20396;-76
2024/04/15 09:50:53;;;;;;;4.72;2.60;;;;;;;19.75;100.00;99863.16;5488064;26;20400;-75
2024/04/15 09:53:27;;;;;;;5.13;2.95;;;;;;;19.81;100.00;99862.69;5487700;26;20431;-76
2024/04/15 09:56:01;;;;;;;4.10;2.35;;;;;;;19.99;100.00;99853.34;5488092;26;20354;-76
2024/04/15 09:58:29;;;;;;;5.35;2.90;;;;;;;19.53;100.00;99859.38;5456691;26;20322;-75
2024/04/15 10:00:58;;;;;;;9.02;3.35;;;;;;;19.23;100.00;99846.50;5486522;26;20327;-75
2024/04/15 10:03:27;;;;;;;8.65;2.80;;;;;;;19.18;100.00;99850.19;5487986;26;20322;-76
2024/04/15 10:05:54;;;;;;;5.10;3.10;;;;;;;19.30;100.00;99860.56;5458614;26;20323;-75
2024/04/15 10:08:19;;;;;;;5.23;3.20;;;;;;;19.29;100.00;99856.22;5503224;26;20307;-75
2024/04/15 10:10:46;;;;;;;5.10;2.90;;;;;;;19.08;100.00;99852.38;5484754;26;20311;-75
2024/04/15 10:13:13;;;;;;;5.43;3.07;;;;;;;18.87;100.00;99846.59;5487526;26;20343;-76
2024/04/15 10:15:39;;;;;;;7.60;3.53;;;;;;;18.83;100.00;99853.06;5487611;26;20314;-75
2024/04/15 10:18:10;;;;;;;5.67;3.00;;;;;;;18.87;100.00;99838.38;5485619;26;20873;-75
2024/04/15 10:20:40;;;;;;;5.90;3.40;;;;;;;18.86;100.00;99838.69;5485403;26;20371;-75
2024/04/15 10:23:06;;;;;;;6.85;3.53;;;;;;;19.13;100.00;99820.09;5523414;26;20814;-76
2024/04/15 10:25:34;;;;;;;7.63;3.47;;;;;;;19.45;100.00;99831.88;5522884;26;20360;-75
2024/04/15 10:27:59;;;;;;;5.82;3.30;;;;;;;19.29;100.00;99825.16;5523073;26;20308;-75
2024/04/15 10:30:31;;;;;;;5.28;3.08;;;;;;;19.09;100.00;99818.31;5496548;26;20320;-76
2024/04/15 10:33:04;;;;;;;7.07;3.15;;;;;;;19.06;100.00;99813.44;5516310;26;20319;-75
2024/04/15 10:35:32;;;;;;;7.00;3.10;;;;;;;19.09;100.00;99804.56;5486658;26;20326;-75
2024/04/15 10:38:00;;;;;;;6.25;2.88;;;;;;;19.05;100.00;99803.56;5486941;26;20861;-75
2024/04/15 10:40:46;;;;;;;5.13;2.60;;;;;;;18.90;100.00;99802.03;5497309;26;20393;-75
2024/04/15 10:43:14;;;;;;;7.65;3.28;;;;;;;18.83;100.00;99781.69;5522361;26;20343;-75
2024/04/15 10:45:39;;;;;;;7.68;2.72;;;;;;;18.76;100.00;99776.63;5482010;26;20345;-75
2024/04/15 10:48:05;;;;;;;6.20;2.90;;;;;;;18.69;100.00;99778.22;5451040;26;20308;-75
2024/04/15 10:50:30;;;;;;;8.82;2.60;;;;;;;18.69;100.00;99772.72;5493425;26;20356;-75
2024/04/15 10:52:55;;;;;;;4.87;2.30;;;;;;;18.76;100.00;99773.09;5498422;26;20339;-76
2024/04/15 10:55:21;;;;;;;7.28;2.55;;;;;;;18.84;100.00;99769.56;5486620;26;20334;-75
2024/04/15 10:57:47;;;;;;;5.67;2.53;;;;;;;19.03;100.00;99757.19;5486933;26;20307;-75
2024/04/15 11:00:14;;;;;;;6.10;3.13;;;;;;;18.88;100.00;99754.88;5498604;26;20655;-75
2024/04/15 11:02:47;;;;;;;4.30;2.75;;;;;;;18.72;100.00;99750.94;5477486;26;20319;-75
2024/04/15 11:05:14;;;;;;;7.07;2.80;;;;;;;18.58;100.00;99753.78;5510968;26;20854;-75
2024/04/15 11:07:39;;;;;;;3.27;2.33;;;;;;;18.74;100.00;99728.69;5523090;26;20854;-75
2024/04/15 11:10:07;;;;;;;7.33;3.00;;;;;;;18.76;100.00;99732.72;5498810;26;20343;-75
2024/04/15 11:12:33;;;;;;;5.00;2.72;;;;;;;18.82;100.00;99733.38;5443706;26;20818;-75